createdAt,value
2018-09-04T00:02:08.915Z,65.50
2018-09-04T00:04:38.760Z,65.10
2018-09-04T00:07:09.317Z,65.00
2018-09-04T00:09:41.869Z,65.00
2018-09-04T00:12:14.371Z,64.90
2018-09-04T00:14:43.749Z,64.90
2018-09-04T00:17:13.009Z,64.80
2018-09-04T00:19:45.505Z,64.70
2018-09-04T00:22:16.542Z,64.90
2018-09-04T00:24:46.801Z,65.10
2018-09-04T00:27:16.889Z,65.10
2018-09-04T00:29:45.666Z,65.20
2018-09-04T00:32:16.531Z,65.40
2018-09-04T00:34:45.491Z,65.40
2018-09-04T00:37:18.734Z,65.10
2018-09-04T00:42:30.170Z,65.20
2018-09-04T00:45:00.171Z,64.80
2018-09-04T00:47:29.920Z,64.90
2018-09-04T00:50:01.049Z,65.00
2018-09-04T00:52:29.839Z,65.10
2018-09-04T00:55:00.375Z,65.10
2018-09-04T00:57:28.976Z,65.00
2018-09-04T01:00:01.358Z,64.80
2018-09-04T01:02:30.681Z,64.80
2018-09-04T01:04:59.595Z,64.70
2018-09-04T01:07:28.651Z,64.60
2018-09-04T01:09:57.636Z,64.60
2018-09-04T01:12:30.140Z,64.60
2018-09-04T01:14:59.765Z,64.60
2018-09-04T01:17:28.708Z,64.70
2018-09-04T01:20:01.661Z,64.80
2018-09-04T01:22:30.485Z,64.90
2018-09-04T01:24:59.441Z,64.90
2018-09-04T01:27:30.008Z,64.50
2018-09-04T01:30:00.592Z,64.90
2018-09-04T01:32:30.140Z,65.60
2018-09-04T01:34:59.223Z,65.20
2018-09-04T01:37:28.326Z,65.40
2018-09-04T01:39:58.326Z,65.50
2018-09-04T01:42:31.688Z,65.40
2018-09-04T01:45:00.356Z,65.90
2018-09-04T01:47:29.305Z,66.30
2018-09-04T01:49:58.979Z,66.80
2018-09-04T01:52:27.663Z,66.90
2018-09-04T01:54:59.879Z,66.70
2018-09-04T01:57:28.987Z,66.50
2018-09-04T02:00:01.435Z,66.40
2018-09-04T02:02:30.140Z,66.50
2018-09-04T02:04:59.795Z,66.30
2018-09-04T02:07:30.318Z,67.00
2018-09-04T02:09:59.381Z,67.20
2018-09-04T02:12:28.234Z,67.70
2018-09-04T02:15:00.736Z,67.70
2018-09-04T02:17:29.894Z,67.80
2018-09-04T02:20:00.512Z,68.10
2018-09-04T02:22:30.321Z,68.10
2018-09-04T02:24:59.086Z,68.10
2018-09-04T02:27:29.146Z,68.00
2018-09-04T02:29:59.003Z,67.80
2018-09-04T02:32:28.972Z,67.80
2018-09-04T02:34:58.664Z,67.70
2018-09-04T02:37:27.513Z,67.80
2018-09-04T02:39:56.873Z,67.80
2018-09-04T02:42:29.675Z,67.70
2018-09-04T02:44:59.122Z,67.70
2018-09-04T02:47:27.721Z,67.70
2018-09-04T02:49:59.992Z,67.70
2018-09-04T02:52:28.816Z,67.70
2018-09-04T02:55:00.357Z,67.80
2018-09-04T02:57:29.056Z,67.80
2018-09-04T03:00:01.268Z,67.80
2018-09-04T03:02:30.074Z,67.80
2018-09-04T03:05:00.200Z,67.80
2018-09-04T03:07:29.185Z,67.80
2018-09-04T03:09:59.149Z,67.80
2018-09-04T03:12:28.482Z,67.80
2018-09-04T03:15:02.347Z,68.00
2018-09-04T03:17:31.033Z,68.10
2018-09-04T03:19:59.951Z,68.10
2018-09-04T03:22:28.492Z,68.20
2018-09-04T03:24:57.057Z,68.20
2018-09-04T03:27:25.730Z,68.50
2018-09-04T03:29:54.367Z,68.70
2018-09-04T03:32:22.938Z,69.30
2018-09-04T03:34:51.754Z,68.70
2018-09-04T03:37:20.193Z,68.70
2018-09-04T03:39:48.766Z,68.70
2018-09-04T03:42:17.306Z,68.60
2018-09-04T03:44:46.039Z,68.40
2018-09-04T03:47:14.617Z,68.80
2018-09-04T03:49:43.799Z,69.20
2018-09-04T03:52:12.443Z,69.10
2018-09-04T03:54:40.963Z,69.40
2018-09-04T03:57:09.527Z,69.60
2018-09-04T03:59:39.014Z,69.60
2018-09-04T04:02:07.574Z,69.40
2018-09-04T04:04:36.226Z,69.00
2018-09-04T04:07:04.821Z,68.80
2018-09-04T04:09:33.466Z,68.90
2018-09-04T04:12:02.744Z,68.80
2018-09-04T04:14:31.280Z,69.10
2018-09-04T04:16:59.830Z,69.30
2018-09-04T04:19:28.405Z,69.20
2018-09-04T04:21:57.114Z,69.10
2018-09-04T04:24:25.695Z,69.00
2018-09-04T04:26:54.378Z,68.90
2018-09-04T04:29:23.025Z,69.00
2018-09-04T04:31:52.569Z,69.30
2018-09-04T04:34:21.169Z,69.30
2018-09-04T04:36:49.693Z,69.10
2018-09-04T04:39:18.341Z,69.20
2018-09-04T04:41:46.880Z,69.10
2018-09-04T04:44:15.381Z,69.20
2018-09-04T04:46:43.883Z,69.10
2018-09-04T04:49:13.226Z,68.80
2018-09-04T04:51:41.712Z,69.50
2018-09-04T04:54:10.266Z,69.70
2018-09-04T04:56:39.298Z,69.90
2018-09-04T04:59:08.197Z,70.90
2018-09-04T05:01:37.898Z,70.00
2018-09-04T05:04:07.312Z,69.90
2018-09-04T05:06:35.922Z,69.60
2018-09-04T05:09:06.514Z,69.40
2018-09-04T05:11:35.096Z,69.20
2018-09-04T05:14:03.616Z,69.10
2018-09-04T05:16:32.390Z,69.00
2018-09-04T05:19:01.024Z,68.90
2018-09-04T05:21:29.569Z,69.00
2018-09-04T05:23:58.122Z,69.00
2018-09-04T05:26:26.700Z,68.60
2018-09-04T05:28:56.034Z,69.00
2018-09-04T05:31:25.321Z,69.30
2018-09-04T05:33:54.018Z,69.20
2018-09-04T05:36:23.996Z,69.00
2018-09-04T05:39:05.689Z,68.80
2018-09-04T05:41:34.443Z,68.80
2018-09-04T05:49:56.963Z,68.40
2018-09-04T05:55:44.817Z,67.90
2018-09-04T05:58:13.779Z,67.50
2018-09-04T06:00:45.789Z,67.40
2018-09-04T06:03:14.770Z,67.20
2018-09-04T06:05:43.717Z,66.70
2018-09-04T06:08:12.597Z,66.60
2018-09-04T06:10:41.284Z,66.60
2018-09-04T06:13:09.845Z,66.40
2018-09-04T06:15:38.414Z,66.60
2018-09-04T06:18:06.954Z,66.60
2018-09-04T06:20:36.312Z,66.50
2018-09-04T06:23:05.029Z,66.30
2018-09-04T06:25:35.171Z,66.20
2018-09-04T06:28:04.264Z,66.00
2018-09-04T06:30:34.971Z,66.20
2018-09-04T06:33:03.629Z,66.20
2018-09-04T06:35:35.482Z,65.80
2018-09-04T06:38:04.862Z,65.50
2018-09-04T06:40:34.188Z,65.10
2018-09-04T06:43:03.875Z,65.20
2018-09-04T06:45:36.139Z,65.10
2018-09-04T06:48:05.885Z,65.10
2018-09-04T06:50:36.932Z,64.90
2018-09-04T06:53:07.057Z,64.70
2018-09-04T06:55:37.298Z,64.30
2018-09-04T06:58:08.076Z,64.10
2018-09-04T07:00:36.912Z,64.20
2018-09-04T07:03:07.767Z,63.90
2018-09-04T07:05:36.535Z,63.90
2018-09-04T07:08:05.549Z,63.70
2018-09-04T07:10:36.397Z,63.30
2018-09-04T07:13:05.343Z,62.80
2018-09-04T07:15:36.285Z,62.40
2018-09-04T07:18:05.461Z,62.30
2018-09-04T07:20:35.286Z,62.20
2018-09-04T07:23:04.091Z,62.40
2018-09-04T07:25:33.322Z,62.70
2018-09-04T07:28:02.812Z,62.80
2018-09-04T07:30:33.658Z,62.50
2018-09-04T07:33:04.677Z,62.10
2018-09-04T07:35:34.245Z,62.20
2018-09-04T07:38:05.453Z,62.10
2018-09-04T07:40:34.600Z,62.20
2018-09-04T07:43:03.285Z,62.50
2018-09-04T07:45:31.997Z,62.50
2018-09-04T07:48:07.422Z,62.30
2018-09-04T07:50:36.495Z,62.20
2018-09-04T07:53:05.224Z,61.90
2018-09-04T07:55:35.781Z,61.30
2018-09-04T07:58:07.493Z,60.70
2018-09-04T08:00:37.441Z,60.50
2018-09-04T08:03:07.953Z,60.50
2018-09-04T08:05:38.926Z,60.30
2018-09-04T08:08:15.392Z,60.00
2018-09-04T08:10:47.798Z,59.70
2018-09-04T08:13:17.111Z,59.60
2018-09-04T08:15:46.829Z,59.00
2018-09-04T08:18:16.278Z,59.00
2018-09-04T08:20:47.642Z,58.90
2018-09-04T08:23:20.186Z,58.80
2018-09-04T08:25:51.641Z,58.80
2018-09-04T08:28:21.373Z,58.70
2018-09-04T08:30:54.555Z,58.10
2018-09-04T08:33:24.681Z,57.90
2018-09-04T08:35:53.915Z,57.60
2018-09-04T08:38:23.584Z,57.50
2018-09-04T08:40:52.697Z,57.50
2018-09-04T08:43:22.208Z,57.00
2018-09-04T08:45:51.303Z,56.60
2018-09-04T08:48:22.061Z,56.40
2018-09-04T08:50:52.154Z,56.00
2018-09-04T08:53:23.034Z,55.50
2018-09-04T08:55:53.298Z,55.20
2018-09-04T08:58:23.725Z,54.90
2018-09-04T09:00:53.822Z,54.20
2018-09-04T09:03:24.438Z,54.20
2018-09-04T09:05:54.741Z,55.00
2018-09-04T09:08:24.412Z,54.80
2018-09-04T09:10:55.399Z,55.10
2018-09-04T09:13:24.507Z,54.90
2018-09-04T09:15:53.577Z,54.40
2018-09-04T09:18:22.597Z,54.10
2018-09-04T09:20:51.410Z,54.00
2018-09-04T09:23:26.380Z,53.70
2018-09-04T09:26:00.028Z,54.20
2018-09-04T09:28:29.318Z,53.10
2018-09-04T09:31:00.334Z,52.70
2018-09-04T09:33:28.947Z,52.40
2018-09-04T09:35:57.686Z,52.20
2018-09-04T09:38:27.817Z,52.00
2018-09-04T09:40:57.302Z,51.90
2018-09-04T09:43:26.427Z,51.60
2018-09-04T09:45:55.175Z,51.50
2018-09-04T09:48:28.506Z,51.50
2018-09-04T09:50:57.141Z,51.70
2018-09-04T09:53:26.115Z,51.40
2018-09-04T09:55:54.524Z,51.10
2018-09-04T09:58:23.548Z,51.70
2018-09-04T10:00:53.830Z,50.90
2018-09-04T10:03:27.441Z,51.10
2018-09-04T10:05:57.163Z,50.70
2018-09-04T10:08:26.975Z,50.50
2018-09-04T10:10:57.575Z,50.10
2018-09-04T10:13:26.432Z,50.10
2018-09-04T10:15:55.860Z,49.90
2018-09-04T10:18:29.570Z,50.00
2018-09-04T10:20:58.512Z,49.70
2018-09-04T10:23:28.466Z,50.40
2018-09-04T10:25:57.562Z,49.90
2018-09-04T10:28:26.737Z,49.80
2018-09-04T10:30:55.757Z,49.30
2018-09-04T10:33:24.805Z,48.90
2018-09-04T10:35:53.785Z,48.80
2018-09-04T10:38:25.439Z,48.70
2018-09-04T10:41:00.823Z,48.60
2018-09-04T10:43:30.889Z,48.50
2018-09-04T10:46:42.564Z,48.20
2018-09-04T10:49:12.947Z,48.50
2018-09-04T10:51:42.234Z,48.80
2018-09-04T10:54:11.454Z,48.60
2018-09-04T10:56:48.853Z,49.10
2018-09-04T10:59:21.983Z,49.30
2018-09-04T11:01:50.775Z,48.90
2018-09-04T11:04:20.316Z,48.30
2018-09-04T11:12:45.314Z,47.90
2018-09-04T11:15:15.313Z,47.40
2018-09-04T11:17:44.313Z,47.00
2018-09-04T11:20:13.245Z,46.90
2018-09-04T11:22:42.302Z,46.40
2018-09-04T11:25:11.173Z,46.30
2018-09-04T11:27:40.897Z,45.90
2018-09-04T11:30:11.569Z,46.30
2018-09-04T11:32:41.331Z,45.90
2018-09-04T11:35:10.680Z,46.10
2018-09-04T11:37:40.148Z,46.00
2018-09-04T11:40:10.393Z,46.00
2018-09-04T11:42:39.224Z,45.80
2018-09-04T11:45:08.735Z,45.60
2018-09-04T11:47:37.958Z,45.40
2018-09-04T11:50:06.846Z,45.40
2018-09-04T11:52:38.745Z,45.00
2018-09-04T11:55:08.140Z,44.80
2018-09-04T11:57:37.975Z,45.10
2018-09-04T12:00:09.456Z,45.30
2018-09-04T12:02:39.932Z,45.40
2018-09-04T12:05:08.962Z,45.20
2018-09-04T12:07:38.954Z,44.90
2018-09-04T12:10:08.009Z,44.60
2018-09-04T12:12:37.659Z,44.70
2018-09-04T12:15:07.151Z,44.70
2018-09-04T12:17:35.741Z,44.40
2018-09-04T12:20:40.852Z,43.90
2018-09-04T12:24:31.795Z,43.70
2018-09-04T12:27:01.285Z,43.20
2018-09-04T12:29:35.095Z,43.10
2018-09-04T12:32:04.435Z,42.80
2018-09-04T12:34:34.174Z,42.90
2018-09-04T12:37:03.873Z,42.70
2018-09-04T12:39:32.977Z,42.90
2018-09-04T12:42:02.109Z,43.00
2018-09-04T12:44:31.591Z,43.50
2018-09-04T12:47:00.826Z,43.70
2018-09-04T12:49:29.807Z,43.80
2018-09-04T12:51:59.413Z,44.20
2018-09-04T12:54:31.053Z,44.10
2018-09-04T12:56:59.701Z,44.50
2018-09-04T12:59:28.602Z,44.60
2018-09-04T13:01:59.244Z,44.90
2018-09-04T13:04:28.420Z,45.10
2018-09-04T13:06:57.294Z,45.60
2018-09-04T13:09:28.233Z,45.80
2018-09-04T13:11:57.840Z,46.00
2018-09-04T13:14:30.086Z,46.00
2018-09-04T13:17:04.722Z,46.00
2018-09-04T13:19:37.242Z,46.20
2018-09-04T13:22:07.313Z,46.20
2018-09-04T13:24:37.399Z,46.10
2018-09-04T13:27:06.530Z,46.30
2018-09-04T13:29:35.515Z,46.10
2018-09-04T13:32:19.375Z,46.10
2018-09-04T13:45:41.410Z,44.60
2018-09-04T13:48:10.556Z,44.40
2018-09-04T13:50:39.720Z,44.50
2018-09-04T13:53:11.080Z,45.30
2018-09-04T13:55:39.887Z,44.20
2018-09-04T13:58:09.748Z,43.80
2018-09-04T14:00:39.369Z,44.00
2018-09-04T14:03:10.346Z,43.60
2018-09-04T14:05:48.383Z,43.60
2018-09-04T14:08:26.502Z,43.40
2018-09-04T14:10:55.381Z,43.30
2018-09-04T14:13:25.096Z,43.30
2018-09-04T14:16:07.402Z,42.80
2018-09-04T14:18:38.246Z,42.70
2018-09-04T14:21:14.411Z,42.90
2018-09-04T14:27:09.224Z,43.20
2018-09-04T14:29:54.362Z,42.90
2018-09-04T14:32:11.837Z,42.70
2018-09-04T14:34:40.494Z,42.60
2018-09-04T14:40:04.386Z,42.50
2018-09-04T14:42:33.853Z,43.00
2018-09-04T14:45:09.679Z,43.30
2018-09-04T14:47:38.584Z,42.90
2018-09-04T14:52:41.901Z,43.00
2018-09-04T14:55:12.138Z,42.90
2018-09-04T14:57:41.782Z,42.80
2018-09-04T15:00:19.526Z,42.50
2018-09-04T15:08:31.176Z,42.30
2018-09-04T15:11:30.241Z,42.10
2018-09-04T15:18:44.749Z,42.00
2018-09-04T15:21:29.764Z,41.80
2018-09-04T15:24:03.974Z,41.60
2018-09-04T15:26:52.200Z,41.70
2018-09-04T15:29:25.064Z,41.80
2018-09-04T15:32:01.054Z,41.80
2018-09-04T15:34:39.309Z,42.00
2018-09-04T15:37:09.540Z,42.20
2018-09-04T15:39:46.186Z,43.10
2018-09-04T15:47:53.366Z,46.20
2018-09-04T15:50:28.808Z,47.70
2018-09-04T15:52:58.062Z,51.80
2018-09-04T15:55:26.931Z,53.10
2018-09-04T15:58:14.366Z,54.30
2018-09-04T16:03:54.680Z,56.80
2018-09-04T16:06:33.676Z,59.80
2018-09-04T16:09:11.231Z,61.10
2018-09-04T16:11:53.583Z,61.30
2018-09-04T16:14:47.578Z,62.00
2018-09-04T16:17:32.857Z,60.70
2018-09-04T16:20:22.620Z,60.00
2018-09-04T16:22:54.996Z,60.40
2018-09-04T16:25:27.989Z,61.00
2018-09-04T16:27:58.199Z,61.80
2018-09-04T16:30:28.771Z,62.00
2018-09-04T16:33:00.596Z,61.30
2018-09-04T16:35:39.535Z,61.70
2018-09-04T16:38:09.963Z,61.80
2018-09-04T16:40:38.876Z,62.00
2018-09-04T16:43:11.521Z,61.40
2018-09-04T16:45:40.514Z,61.60
2018-09-04T16:48:15.022Z,61.60
2018-09-04T16:51:04.870Z,61.20
2018-09-04T16:53:36.368Z,62.10
2018-09-04T16:58:58.003Z,62.70
2018-09-04T17:01:26.961Z,62.90
2018-09-04T17:06:52.140Z,62.40
2018-09-04T17:09:21.143Z,61.60
2018-09-04T17:11:49.874Z,62.60
2018-09-04T17:14:19.593Z,62.70
2018-09-04T17:16:48.564Z,63.50
2018-09-04T17:19:17.198Z,63.70
2018-09-04T17:21:45.997Z,64.70
2018-09-04T17:24:14.691Z,65.20
2018-09-04T17:26:43.525Z,65.00
2018-09-04T17:29:12.333Z,65.10
2018-09-04T17:31:40.992Z,65.50
2018-09-04T17:34:09.612Z,65.80
2018-09-04T17:36:38.520Z,65.80
2018-09-04T17:39:08.070Z,66.00
2018-09-04T17:41:37.492Z,65.80
2018-09-04T17:44:07.305Z,66.00
2018-09-04T17:46:38.520Z,66.10
2018-09-04T17:49:07.336Z,65.80
2018-09-04T17:51:35.990Z,65.90
2018-09-04T17:54:04.846Z,65.90
2018-09-04T17:56:33.461Z,65.40
2018-09-04T17:59:02.228Z,65.10
2018-09-04T18:01:32.854Z,65.40
2018-09-04T18:04:01.517Z,64.20
2018-09-04T18:06:30.169Z,64.20
2018-09-04T18:08:58.932Z,64.50
2018-09-04T18:11:27.674Z,64.60
2018-09-04T18:13:56.452Z,64.70
2018-09-04T18:16:25.021Z,64.50
2018-09-04T18:18:53.647Z,64.70
2018-09-04T18:21:22.164Z,64.60
2018-09-04T18:23:50.882Z,64.50
2018-09-04T18:26:19.439Z,64.70
2018-09-04T18:28:48.326Z,64.80
2018-09-04T18:31:17.559Z,64.50
2018-09-04T18:33:50.026Z,64.70
2018-09-04T18:36:20.498Z,64.60
2018-09-04T18:38:52.175Z,64.50
2018-09-04T18:41:21.923Z,64.40
2018-09-04T18:43:56.042Z,64.10
2018-09-04T18:46:24.676Z,64.10
2018-09-04T18:48:55.493Z,63.50
2018-09-04T18:51:25.461Z,63.90
2018-09-04T18:53:54.395Z,63.80
2018-09-04T18:56:24.048Z,64.00
2018-09-04T18:58:53.609Z,64.00
2018-09-04T19:01:23.119Z,64.50
2018-09-04T19:03:51.790Z,64.80
2018-09-04T19:06:21.129Z,65.00
2018-09-04T19:08:49.676Z,65.20
2018-09-04T19:11:18.366Z,65.10
2018-09-04T19:13:46.851Z,65.10
2018-09-04T19:16:16.390Z,64.80
2018-09-04T19:18:45.208Z,64.90
2018-09-04T19:21:13.748Z,64.90
2018-09-04T19:23:43.018Z,64.70
2018-09-04T19:26:32.610Z,64.50
2018-09-04T19:29:05.345Z,64.30
2018-09-04T19:31:33.914Z,64.60
2018-09-04T19:34:03.158Z,64.80
2018-09-04T19:36:32.207Z,65.10
2018-09-04T19:39:00.844Z,65.10
2018-09-04T19:41:36.900Z,64.90
2018-09-04T19:44:06.875Z,65.20
2018-09-04T19:46:35.483Z,64.80
2018-09-04T19:49:04.282Z,64.70
2018-09-04T19:51:33.899Z,64.50
2018-09-04T19:54:02.700Z,65.10
2018-09-04T19:57:14.514Z,65.10
2018-09-04T20:02:17.656Z,65.50
2018-09-04T20:04:46.230Z,65.50
2018-09-04T20:07:14.813Z,65.50
2018-09-04T20:09:56.111Z,65.40
2018-09-04T20:12:24.760Z,64.80
2018-09-04T20:14:53.326Z,65.20
2018-09-04T20:17:21.937Z,65.30
2018-09-04T20:20:00.671Z,65.20
2018-09-04T20:22:29.415Z,65.60
2018-09-04T20:24:58.861Z,65.00
2018-09-04T20:30:28.222Z,65.30
2018-09-04T20:32:56.807Z,65.40
2018-09-04T20:35:27.293Z,65.50
2018-09-04T20:37:55.948Z,65.70
2018-09-04T20:40:25.409Z,65.80
2018-09-04T20:42:54.132Z,65.60
2018-09-04T20:45:23.772Z,66.00
2018-09-04T20:47:52.470Z,66.30
2018-09-04T20:50:21.660Z,66.20
2018-09-04T20:52:51.300Z,66.20
2018-09-04T20:55:20.177Z,66.30
2018-09-04T20:58:01.990Z,66.60
2018-09-04T21:00:41.608Z,66.70
2018-09-04T21:03:21.316Z,66.30
2018-09-04T21:06:01.392Z,66.20
2018-09-04T21:08:43.197Z,66.00
2018-09-04T21:11:12.224Z,66.20
2018-09-04T21:13:42.930Z,66.10
2018-09-04T21:16:11.630Z,66.20
2018-09-04T21:18:43.909Z,66.00
2018-09-04T21:21:17.470Z,66.10
2018-09-04T22:03:23.242Z,65.80
2018-09-04T22:08:49.688Z,66.50
2018-09-04T22:11:28.138Z,66.80
2018-09-04T22:13:56.792Z,66.90
2018-09-04T22:16:25.418Z,67.10
2018-09-04T22:18:54.057Z,67.20
2018-09-04T22:21:22.673Z,67.50
2018-09-04T22:23:52.427Z,67.70
2018-09-04T22:26:21.447Z,67.80
2018-09-04T22:28:50.035Z,68.20
2018-09-04T22:31:20.657Z,67.90
2018-09-04T22:33:49.407Z,67.70
2018-09-04T22:36:18.046Z,67.80
2018-09-04T22:38:46.556Z,67.80
2018-09-04T22:41:15.443Z,67.50
2018-09-04T22:43:44.916Z,67.30
2018-09-04T22:46:13.598Z,67.40
2018-09-04T22:48:43.937Z,67.60
2018-09-04T22:51:17.650Z,67.50
2018-09-04T22:53:46.493Z,67.60
2018-09-04T22:56:15.061Z,67.90
2018-09-04T22:58:43.815Z,67.80
2018-09-04T23:01:13.183Z,67.90
2018-09-04T23:03:41.839Z,67.90
2018-09-04T23:06:10.543Z,67.60
2018-09-04T23:08:39.191Z,67.30
2018-09-04T23:11:08.422Z,67.30
2018-09-04T23:13:36.941Z,67.60
2018-09-04T23:16:06.448Z,67.60
2018-09-04T23:18:34.956Z,67.80
2018-09-04T23:21:03.948Z,68.70
2018-09-04T23:23:32.708Z,68.00
2018-09-04T23:26:01.573Z,68.00
2018-09-04T23:28:30.105Z,67.80
2018-09-04T23:30:58.884Z,68.00
2018-09-04T23:33:27.529Z,68.10
2018-09-04T23:35:56.217Z,68.30
2018-09-04T23:38:24.758Z,68.60
2018-09-04T23:40:53.396Z,68.90
2018-09-04T23:43:22.000Z,69.20
2018-09-04T23:45:51.439Z,69.20
2018-09-04T23:48:23.056Z,69.10
2018-09-04T23:50:51.606Z,69.10
2018-09-04T23:53:21.849Z,68.90
2018-09-04T23:55:50.373Z,68.00
2018-09-04T23:58:21.077Z,68.40
